sensor_id;sensor_type;location;lat;lon;timestamp;pressure;altitude;pressure_sealevel;temperature;humidity
76434;BME280;65265;53.200;6.080;2023-04-24T00:02:52;99701.56;;;10.53;100.00
76434;BME280;65265;53.200;6.080;2023-04-24T00:07:48;99716.91;;;10.55;100.00
76434;BME280;65265;53.200;6.080;2023-04-24T00:12:42;99706.72;;;10.56;100.00
76434;BME280;65265;53.200;6.080;2023-04-24T00:17:34;99701.56;;;10.53;100.00
76434;BME280;65265;53.200;6.080;2023-04-24T00:22:26;99697.28;;;10.54;100.00
76434;BME280;65265;53.200;6.080;2023-04-24T00:27:19;99698.19;;;10.54;100.00
76434;BME280;65265;53.200;6.080;2023-04-24T00:32:11;99701.56;;;10.53;100.00
76434;BME280;65265;53.200;6.080;2023-04-24T00:37:17;99696.41;;;10.50;100.00
76434;BME280;65265;53.200;6.080;2023-04-24T00:42:09;99694.72;;;10.52;100.00
76434;BME280;65265;53.200;6.080;2023-04-24T00:47:02;99696.41;;;10.50;100.00
76434;BME280;65265;53.200;6.080;2023-04-24T00:51:54;99696.41;;;10.50;100.00
76434;BME280;65265;53.200;6.080;2023-04-24T00:56:47;99687.75;;;10.45;100.00
76434;BME280;65265;53.200;6.080;2023-04-24T01:01:39;99681.69;;;10.42;100.00
76434;BME280;65265;53.200;6.080;2023-04-24T01:06:33;99690.09;;;10.35;100.00
76434;BME280;65265;53.200;6.080;2023-04-24T01:11:25;99682.31;;;10.30;100.00
76434;BME280;65265;53.200;6.080;2023-04-24T01:16:17;99674.66;;;10.30;100.00
76434;BME280;65265;53.200;6.080;2023-04-24T01:21:13;99674.53;;;10.26;100.00
76434;BME280;65265;53.200;6.080;2023-04-24T01:26:06;99675.31;;;10.22;100.00
76434;BME280;65265;53.200;6.080;2023-04-24T01:30:57;99674.41;;;10.20;100.00
76434;BME280;65265;53.200;6.080;2023-04-24T01:35:49;99676.94;;;10.18;100.00
76434;BME280;65265;53.200;6.080;2023-04-24T01:40:41;99672.72;;;10.20;100.00
76434;BME280;65265;53.200;6.080;2023-04-24T01:45:34;99680.34;;;10.19;100.00
76434;BME280;65265;53.200;6.080;2023-04-24T01:50:25;99675.28;;;10.20;100.00
76434;BME280;65265;53.200;6.080;2023-04-24T01:55:17;99672.66;;;10.19;100.00
76434;BME280;65265;53.200;6.080;2023-04-24T02:00:10;99680.44;;;10.23;100.00
76434;BME280;65265;53.200;6.080;2023-04-24T02:05:05;99675.38;;;10.26;100.00
76434;BME280;65265;53.200;6.080;2023-04-24T02:09:57;99676.94;;;10.18;100.00
76434;BME280;65265;53.200;6.080;2023-04-24T02:14:49;99679.50;;;10.20;100.00
76434;BME280;65265;53.200;6.080;2023-04-24T02:19:40;99674.50;;;10.23;100.00
76434;BME280;65265;53.200;6.080;2023-04-24T02:24:33;99675.22;;;10.17;100.00
76434;BME280;65265;53.200;6.080;2023-04-24T02:29:24;99676.84;;;10.15;100.00
76434;BME280;65265;53.200;6.080;2023-04-24T02:34:16;99682.88;;;10.17;100.00
76434;BME280;65265;53.200;6.080;2023-04-24T02:39:07;99676.00;;;10.15;100.00
76434;BME280;65265;53.200;6.080;2023-04-24T02:44:00;99672.63;;;10.16;100.00
76434;BME280;65265;53.200;6.080;2023-04-24T02:48:52;99684.50;;;10.15;100.00
76434;BME280;65265;53.200;6.080;2023-04-24T02:53:43;99680.22;;;10.13;100.00
76434;BME280;65265;53.200;6.080;2023-04-24T02:58:35;99681.06;;;10.13;100.00
76434;BME280;65265;53.200;6.080;2023-04-24T03:03:28;99682.94;;;10.20;100.00
76434;BME280;65265;53.200;6.080;2023-04-24T03:08:20;99680.38;;;10.20;100.00
76434;BME280;65265;53.200;6.080;2023-04-24T03:13:11;99678.88;;;10.28;100.00
76434;BME280;65265;53.200;6.080;2023-04-24T03:18:03;99681.16;;;10.16;100.00
76434;BME280;65265;53.200;6.080;2023-04-24T03:22:56;99685.44;;;10.17;100.00
76434;BME280;65265;53.200;6.080;2023-04-24T03:27:48;99687.09;;;10.17;100.00
76434;BME280;65265;53.200;6.080;2023-04-24T03:32:39;99691.31;;;10.15;100.00
76434;BME280;65265;53.200;6.080;2023-04-24T03:37:31;99703.13;;;10.10;100.00
76434;BME280;65265;53.200;6.080;2023-04-24T03:42:23;99701.31;;;10.06;100.00
76434;BME280;65265;53.200;6.080;2023-04-24T03:47:15;99712.41;;;10.06;100.00
76434;BME280;65265;53.200;6.080;2023-04-24T03:52:06;99708.94;;;10.04;100.00
76434;BME280;65265;53.200;6.080;2023-04-24T03:56:58;99713.19;;;10.04;100.00
76434;BME280;65265;53.200;6.080;2023-04-24T04:01:50;99716.59;;;10.03;100.00
76434;BME280;65265;53.200;6.080;2023-04-24T04:06:42;99730.19;;;10.03;100.00
76434;BME280;65265;53.200;6.080;2023-04-24T04:11:34;99731.81;;;10.01;100.00
76434;BME280;65265;53.200;6.080;2023-04-24T04:16:26;99730.03;;;9.97;100.00
76434;BME280;65265;53.200;6.080;2023-04-24T04:21:19;99735.09;;;9.96;100.00
76434;BME280;65265;53.200;6.080;2023-04-24T04:26:11;99741.88;;;9.94;100.00
76434;BME280;65265;53.200;6.080;2023-04-24T04:31:02;99742.66;;;9.91;100.00
76434;BME280;65265;53.200;6.080;2023-04-24T04:35:54;99749.41;;;9.89;100.00
76434;BME280;65265;53.200;6.080;2023-04-24T04:40:48;99757.91;;;9.88;100.00
76434;BME280;65265;53.200;6.080;2023-04-24T04:45:40;99762.06;;;9.85;100.00
76434;BME280;65265;53.200;6.080;2023-04-24T04:50:31;99774.72;;;9.80;100.00
76434;BME280;65265;53.200;6.080;2023-04-24T04:55:23;99785.03;;;9.85;100.00
76434;BME280;65265;53.200;6.080;2023-04-24T05:00:16;99790.84;;;9.79;100.00
76434;BME280;65265;53.200;6.080;2023-04-24T05:05:08;99792.47;;;9.76;100.00
76434;BME280;65265;53.200;6.080;2023-04-24T05:10:00;99801.91;;;9.78;100.00
76434;BME280;65265;53.200;6.080;2023-04-24T05:14:51;99797.56;;;9.74;100.00
76434;BME280;65265;53.200;6.080;2023-04-24T05:19:44;99812.88;;;9.76;100.00
76434;BME280;65265;53.200;6.080;2023-04-24T05:24:36;99827.34;;;9.75;100.00
76434;BME280;65265;53.200;6.080;2023-04-24T05:29:28;99820.53;;;9.74;100.00
76434;BME280;65265;53.200;6.080;2023-04-24T05:34:20;99838.53;;;9.79;100.00
76434;BME280;65265;53.200;6.080;2023-04-24T05:39:13;99840.25;;;9.80;100.00
76434;BME280;65265;53.200;6.080;2023-04-24T05:44:05;99855.59;;;9.81;100.00
76434;BME280;65265;53.200;6.080;2023-04-24T05:48:57;99855.59;;;9.81;100.00
76434;BME280;65265;53.200;6.080;2023-04-24T05:53:48;99864.91;;;9.79;100.00
76434;BME280;65265;53.200;6.080;2023-04-24T05:58:41;99875.13;;;9.79;100.00
76434;BME280;65265;53.200;6.080;2023-04-24T06:03:33;99886.97;;;9.77;100.00
76434;BME280;65265;53.200;6.080;2023-04-24T06:08:24;99887.88;;;9.78;100.00
76434;BME280;65265;53.200;6.080;2023-04-24T06:13:16;99898.84;;;9.75;100.00
76434;BME280;65265;53.200;6.080;2023-04-24T06:18:09;99919.19;;;9.72;100.00
76434;BME280;65265;53.200;6.080;2023-04-24T06:23:01;99924.19;;;9.69;100.00
76434;BME280;65265;53.200;6.080;2023-04-24T06:27:52;99940.34;;;9.68;100.00
76434;BME280;65265;53.200;6.080;2023-04-24T06:32:44;99938.53;;;9.64;100.00
76434;BME280;65265;53.200;6.080;2023-04-24T06:37:36;99942.75;;;9.64;100.00
76434;BME280;65265;53.200;6.080;2023-04-24T06:42:28;99949.44;;;9.60;100.00
76434;BME280;65265;53.200;6.080;2023-04-24T06:47:19;99945.16;;;9.59;100.00
76434;BME280;65265;53.200;6.080;2023-04-24T06:52:11;99957.09;;;9.59;100.00
76434;BME280;65265;53.200;6.080;2023-04-24T06:57:04;99971.44;;;9.55;100.00
76434;BME280;65265;53.200;6.080;2023-04-24T07:01:56;99967.97;;;9.53;100.00
76434;BME280;65265;53.200;6.080;2023-04-24T07:06:48;99974.72;;;9.51;100.00
76434;BME280;65265;53.200;6.080;2023-04-24T07:11:41;99979.63;;;9.45;100.00
76434;BME280;65265;53.200;6.080;2023-04-24T07:16:34;99994.88;;;9.43;100.00
76434;BME280;65265;53.200;6.080;2023-04-24T07:21:26;100000.72;;;9.40;100.00
76434;BME280;65265;53.200;6.080;2023-04-24T07:26:17;100017.78;;;9.41;100.00
76434;BME280;65265;53.200;6.080;2023-04-24T07:31:09;100015.28;;;9.43;99.88
76434;BME280;65265;53.200;6.080;2023-04-24T07:36:03;100023.69;;;9.40;99.34
76434;BME280;65265;53.200;6.080;2023-04-24T07:40:55;100038.03;;;9.37;98.50
76434;BME280;65265;53.200;6.080;2023-04-24T07:45:46;100036.16;;;9.31;98.69
76434;BME280;65265;53.200;6.080;2023-04-24T07:50:38;100054.16;;;9.36;98.95
76434;BME280;65265;53.200;6.080;2023-04-24T07:55:31;100065.94;;;9.31;98.49
76434;BME280;65265;53.200;6.080;2023-04-24T08:00:23;100075.91;;;9.25;97.74
76434;BME280;65265;53.200;6.080;2023-04-24T08:05:14;100077.41;;;9.18;96.42
76434;BME280;65265;53.200;6.080;2023-04-24T08:10:07;100091.03;;;9.19;96.78
76434;BME280;65265;53.200;6.080;2023-04-24T08:14:59;100087.59;;;9.17;95.53
76434;BME280;65265;53.200;6.080;2023-04-24T08:19:51;100098.84;;;9.23;95.31
76434;BME280;65265;53.200;6.080;2023-04-24T08:24:49;100117.66;;;9.27;94.99
76434;BME280;65265;53.200;6.080;2023-04-24T08:29:40;100128.13;;;9.34;94.87
76434;BME280;65265;53.200;6.080;2023-04-24T08:34:33;100114.94;;;9.47;94.85
76434;BME280;65265;53.200;6.080;2023-04-24T08:39:24;100123.69;;;9.55;92.90
76434;BME280;65265;53.200;6.080;2023-04-24T08:44:16;100128.34;;;9.66;93.71
76434;BME280;65265;53.200;6.080;2023-04-24T08:49:08;100144.56;;;9.68;93.29
76434;BME280;65265;53.200;6.080;2023-04-24T08:54:02;100154.47;;;9.59;91.35
76434;BME280;65265;53.200;6.080;2023-04-24T08:58:54;100158.59;;;9.54;91.29
76434;BME280;65265;53.200;6.080;2023-04-24T09:03:46;100176.63;;;9.60;92.03
76434;BME280;65265;53.200;6.080;2023-04-24T09:08:41;100177.06;;;9.72;91.68
76434;BME280;65265;53.200;6.080;2023-04-24T09:13:34;100185.72;;;9.77;87.31
76434;BME280;65265;53.200;6.080;2023-04-24T09:18:26;100188.38;;;9.80;85.97
76434;BME280;65265;53.200;6.080;2023-04-24T09:23:17;100202.41;;;9.93;84.00
76434;BME280;65265;53.200;6.080;2023-04-24T09:28:09;100207.34;;;10.13;84.28
76434;BME280;65265;53.200;6.080;2023-04-24T09:33:12;100217.38;;;10.34;83.37
76434;BME280;65265;53.200;6.080;2023-04-24T09:38:04;100222.88;;;10.47;82.78
76434;BME280;65265;53.200;6.080;2023-04-24T09:42:56;100226.13;;;10.42;83.70
76434;BME280;65265;53.200;6.080;2023-04-24T09:47:52;100240.16;;;10.54;82.30
76434;BME280;65265;53.200;6.080;2023-04-24T09:52:46;100245.53;;;10.63;80.50
76434;BME280;65265;53.200;6.080;2023-04-24T09:57:47;100252.88;;;10.81;80.24
76434;BME280;65265;53.200;6.080;2023-04-24T10:02:39;100256.63;;;10.93;79.01
76434;BME280;65265;53.200;6.080;2023-04-24T10:07:32;100267.84;;;10.97;78.78
76434;BME280;65265;53.200;6.080;2023-04-24T10:12:26;100280.31;;;10.86;75.71
76434;BME280;65265;53.200;6.080;2023-04-24T10:17:19;100278.13;;;10.70;77.71
76434;BME280;65265;53.200;6.080;2023-04-24T10:22:11;100282.03;;;10.58;77.74
76434;BME280;65265;53.200;6.080;2023-04-24T10:27:04;100303.47;;;10.63;79.19
76434;BME280;65265;53.200;6.080;2023-04-24T10:31:57;100311.00;;;10.58;77.96
76434;BME280;65265;53.200;6.080;2023-04-24T10:36:51;100311.53;;;10.48;77.38
76434;BME280;65265;53.200;6.080;2023-04-24T10:41:44;100314.53;;;10.35;78.85
76434;BME280;65265;53.200;6.080;2023-04-24T10:46:37;100325.50;;;10.33;77.28
76434;BME280;65265;53.200;6.080;2023-04-24T10:51:48;100329.69;;;10.31;78.12
76434;BME280;65265;53.200;6.080;2023-04-24T10:56:40;100331.59;;;10.36;77.90
76434;BME280;65265;53.200;6.080;2023-04-24T11:01:32;100341.81;;;10.36;75.46
76434;BME280;65265;53.200;6.080;2023-04-24T11:06:30;100343.53;;;10.37;77.03
76434;BME280;65265;53.200;6.080;2023-04-24T11:11:28;100342.25;;;10.23;77.23
76434;BME280;65265;53.200;6.080;2023-04-24T11:16:23;100359.88;;;9.92;77.23
76434;BME280;65265;53.200;6.080;2023-04-24T11:21:19;100376.91;;;9.68;77.10
76434;BME280;65265;53.200;6.080;2023-04-24T11:26:11;100389.69;;;9.46;78.49
76434;BME280;65265;53.200;6.080;2023-04-24T11:31:36;100385.03;;;9.35;78.62
76434;BME280;65265;53.200;6.080;2023-04-24T11:36:28;100387.59;;;9.35;77.16
76434;BME280;65265;53.200;6.080;2023-04-24T11:41:22;100386.13;;;9.65;77.84
76434;BME280;65265;53.200;6.080;2023-04-24T11:46:16;100382.19;;;9.98;79.39
76434;BME280;65265;53.200;6.080;2023-04-24T11:51:11;100396.31;;;10.35;78.05
76434;BME280;65265;53.200;6.080;2023-04-24T11:56:03;100396.41;;;10.63;75.51
76434;BME280;65265;53.200;6.080;2023-04-24T12:00:57;100397.63;;;10.74;76.27
76434;BME280;65265;53.200;6.080;2023-04-24T12:05:49;100407.47;;;10.62;75.43
76434;BME280;65265;53.200;6.080;2023-04-24T12:10:43;100411.34;;;10.51;76.42
76434;BME280;65265;53.200;6.080;2023-04-24T12:15:35;100413.88;;;10.76;77.88
76434;BME280;65265;53.200;6.080;2023-04-24T12:20:27;100407.19;;;11.08;75.85
76434;BME280;65265;53.200;6.080;2023-04-24T12:25:20;100405.03;;;10.93;74.79
76434;BME280;65265;53.200;6.080;2023-04-24T12:30:15;100408.75;;;10.76;73.42
76434;BME280;65265;53.200;6.080;2023-04-24T12:35:08;100418.59;;;10.64;73.38
76434;BME280;65265;53.200;6.080;2023-04-24T12:40:01;100426.75;;;10.79;71.09
76434;BME280;65265;53.200;6.080;2023-04-24T12:44:56;100432.75;;;11.06;72.39
76434;BME280;65265;53.200;6.080;2023-04-24T12:49:51;100446.91;;;10.95;70.89
76434;BME280;65265;53.200;6.080;2023-04-24T12:54:42;100449.47;;;10.95;70.71
76434;BME280;65265;53.200;6.080;2023-04-24T12:59:34;100458.81;;;10.95;71.10
76434;BME280;65265;53.200;6.080;2023-04-24T13:04:25;100448.56;;;10.95;70.93
76434;BME280;65265;53.200;6.080;2023-04-24T13:09:18;100453.66;;;10.68;70.74
76434;BME280;65265;53.200;6.080;2023-04-24T13:14:10;100464.09;;;10.49;71.07
76434;BME280;65265;53.200;6.080;2023-04-24T13:19:02;100474.41;;;10.27;72.84
76434;BME280;65265;53.200;6.080;2023-04-24T13:23:54;100473.84;;;10.11;73.97
76434;BME280;65265;53.200;6.080;2023-04-24T13:28:47;100469.06;;;9.98;75.44
76434;BME280;65265;53.200;6.080;2023-04-24T13:33:39;100488.97;;;9.61;78.87
76434;BME280;65265;53.200;6.080;2023-04-24T13:38:30;100491.44;;;9.38;82.93
76434;BME280;65265;53.200;6.080;2023-04-24T13:43:22;100490.47;;;9.34;84.52
76434;BME280;65265;53.200;6.080;2023-04-24T13:48:15;100494.69;;;9.34;83.55
76434;BME280;65265;53.200;6.080;2023-04-24T13:53:06;100499.22;;;9.19;83.57
76434;BME280;65265;53.200;6.080;2023-04-24T13:57:58;100496.25;;;9.30;82.33
76434;BME280;65265;53.200;6.080;2023-04-24T14:02:49;100496.34;;;9.53;80.34
76434;BME280;65265;53.200;6.080;2023-04-24T14:07:42;100503.53;;;9.63;80.99
76434;BME280;65265;53.200;6.080;2023-04-24T14:12:34;100501.84;;;9.64;80.64
76434;BME280;65265;53.200;6.080;2023-04-24T14:17:27;100495.81;;;9.62;80.04
76434;BME280;65265;53.200;6.080;2023-04-24T14:22:18;100484.94;;;9.45;82.98
76434;BME280;65265;53.200;6.080;2023-04-24T14:27:11;100498.59;;;9.46;84.17
76434;BME280;65265;53.200;6.080;2023-04-24T14:32:03;100502.13;;;9.28;85.74
76434;BME280;65265;53.200;6.080;2023-04-24T14:36:54;100494.22;;;9.22;86.06
76434;BME280;65265;53.200;6.080;2023-04-24T14:41:46;100492.47;;;9.21;85.11
76434;BME280;65265;53.200;6.080;2023-04-24T14:46:39;100498.63;;;9.26;85.68
76434;BME280;65265;53.200;6.080;2023-04-24T14:51:30;100508.72;;;9.23;84.89
76434;BME280;65265;53.200;6.080;2023-04-24T14:56:22;100510.91;;;9.14;85.05
76434;BME280;65265;53.200;6.080;2023-04-24T15:01:14;100512.78;;;9.18;85.90
76434;BME280;65265;53.200;6.080;2023-04-24T15:06:07;100509.53;;;9.22;84.73
76434;BME280;65265;53.200;6.080;2023-04-24T15:10:58;100508.16;;;9.09;85.74
76434;BME280;65265;53.200;6.080;2023-04-24T15:15:50;100519.69;;;9.00;88.63
76434;BME280;65265;53.200;6.080;2023-04-24T15:20:41;100510.72;;;9.09;88.77
76434;BME280;65265;53.200;6.080;2023-04-24T15:25:34;100512.03;;;9.00;89.00
76434;BME280;65265;53.200;6.080;2023-04-24T15:30:26;100512.41;;;8.88;92.29
76434;BME280;65265;53.200;6.080;2023-04-24T15:35:18;100520.50;;;8.78;94.23
76434;BME280;65265;53.200;6.080;2023-04-24T15:40:10;100523.84;;;8.77;94.00
76434;BME280;65265;53.200;6.080;2023-04-24T15:45:06;100522.34;;;8.82;93.64
76434;BME280;65265;53.200;6.080;2023-04-24T15:49:57;100533.09;;;8.75;95.27
76434;BME280;65265;53.200;6.080;2023-04-24T15:54:49;100535.53;;;8.72;93.87
76434;BME280;65265;53.200;6.080;2023-04-24T15:59:40;100543.28;;;8.55;95.63
76434;BME280;65265;53.200;6.080;2023-04-24T16:04:33;100549.19;;;8.54;96.78
76434;BME280;65265;53.200;6.080;2023-04-24T16:09:25;100547.44;;;8.53;96.01
76434;BME280;65265;53.200;6.080;2023-04-24T16:14:17;100556.03;;;8.36;93.47
76434;BME280;65265;53.200;6.080;2023-04-24T16:19:08;100559.78;;;8.25;95.18
76434;BME280;65265;53.200;6.080;2023-04-24T16:24:01;100564.88;;;8.25;96.12
76434;BME280;65265;53.200;6.080;2023-04-24T16:28:52;100570.13;;;8.28;97.83
76434;BME280;65265;53.200;6.080;2023-04-24T16:33:45;100577.09;;;8.32;97.24
76434;BME280;65265;53.200;6.080;2023-04-24T16:38:37;100579.88;;;8.38;96.83
76434;BME280;65265;53.200;6.080;2023-04-24T16:43:30;100590.88;;;8.37;97.06
76434;BME280;65265;53.200;6.080;2023-04-24T16:48:21;100592.78;;;8.41;96.78
76434;BME280;65265;53.200;6.080;2023-04-24T16:53:13;100609.69;;;8.39;95.28
76434;BME280;65265;53.200;6.080;2023-04-24T16:58:04;100614.38;;;8.30;96.73
76434;BME280;65265;53.200;6.080;2023-04-24T17:02:57;100631.25;;;8.28;96.65
76434;BME280;65265;53.200;6.080;2023-04-24T17:07:49;100621.34;;;8.16;96.46
76434;BME280;65265;53.200;6.080;2023-04-24T17:12:40;100642.59;;;8.17;96.95
76434;BME280;65265;53.200;6.080;2023-04-24T17:17:32;100643.13;;;8.10;95.36
76434;BME280;65265;53.200;6.080;2023-04-24T17:22:25;100640.56;;;8.10;95.07
76434;BME280;65265;53.200;6.080;2023-04-24T17:27:16;100639.63;;;8.08;95.17
76434;BME280;65265;53.200;6.080;2023-04-24T17:32:08;100647.88;;;8.02;94.37
76434;BME280;65265;53.200;6.080;2023-04-24T17:36:59;100649.59;;;8.03;95.05
76434;BME280;65265;53.200;6.080;2023-04-24T17:41:52;100644.22;;;7.97;95.42
76434;BME280;65265;53.200;6.080;2023-04-24T17:46:44;100649.59;;;8.03;95.04
76434;BME280;65265;53.200;6.080;2023-04-24T17:51:35;100644.56;;;8.05;94.72
76434;BME280;65265;53.200;6.080;2023-04-24T17:56:27;100653.09;;;8.05;94.00
76434;BME280;65265;53.200;6.080;2023-04-24T18:01:20;100653.81;;;8.03;93.90
76434;BME280;65265;53.200;6.080;2023-04-24T18:06:13;100653.69;;;8.00;94.93
76434;BME280;65265;53.200;6.080;2023-04-24T18:11:06;100659.78;;;8.03;95.05
76434;BME280;65265;53.200;6.080;2023-04-24T18:15:57;100658.84;;;8.01;95.00
76434;BME280;65265;53.200;6.080;2023-04-24T18:20:50;100664.00;;;8.03;95.40
76434;BME280;65265;53.200;6.080;2023-04-24T18:25:42;100665.81;;;8.05;95.24
76434;BME280;65265;53.200;6.080;2023-04-24T18:30:33;100666.72;;;8.06;95.25
76434;BME280;65265;53.200;6.080;2023-04-24T18:35:25;100677.09;;;8.10;94.99
76434;BME280;65265;53.200;6.080;2023-04-24T18:40:18;100687.22;;;8.09;93.68
76434;BME280;65265;53.200;6.080;2023-04-24T18:45:10;100684.25;;;8.00;93.62
76434;BME280;65265;53.200;6.080;2023-04-24T18:50:01;100696.31;;;8.04;91.89
76434;BME280;65265;53.200;6.080;2023-04-24T18:54:53;100704.59;;;8.00;91.62
76434;BME280;65265;53.200;6.080;2023-04-24T18:59:47;100714.47;;;7.94;91.67
76434;BME280;65265;53.200;6.080;2023-04-24T19:04:38;100716.91;;;7.91;92.81
76434;BME280;65265;53.200;6.080;2023-04-24T19:09:30;100721.19;;;7.92;91.86
76434;BME280;65265;53.200;6.080;2023-04-24T19:14:21;100733.69;;;7.87;93.05
76434;BME280;65265;53.200;6.080;2023-04-24T19:19:14;100744.44;;;7.82;92.05
76434;BME280;65265;53.200;6.080;2023-04-24T19:24:06;100749.16;;;7.74;92.30
76434;BME280;65265;53.200;6.080;2023-04-24T19:28:59;100757.16;;;7.64;93.34
76434;BME280;65265;53.200;6.080;2023-04-24T19:33:50;100766.25;;;7.59;94.59
76434;BME280;65265;53.200;6.080;2023-04-24T19:38:43;100767.38;;;7.48;95.73
76434;BME280;65265;53.200;6.080;2023-04-24T19:43:35;100778.41;;;7.49;96.36
76434;BME280;65265;53.200;6.080;2023-04-24T19:48:26;100776.66;;;7.48;97.53
76434;BME280;65265;53.200;6.080;2023-04-24T19:53:20;100781.94;;;7.51;98.85
76434;BME280;65265;53.200;6.080;2023-04-24T19:58:13;100787.03;;;7.51;100.00
76434;BME280;65265;53.200;6.080;2023-04-24T20:03:04;100781.13;;;7.52;100.00
76434;BME280;65265;53.200;6.080;2023-04-24T20:07:55;100791.13;;;7.49;100.00
76434;BME280;65265;53.200;6.080;2023-04-24T20:12:47;100798.94;;;7.52;100.00
76434;BME280;65265;53.200;6.080;2023-04-24T20:17:40;100805.78;;;7.53;100.00
76434;BME280;65265;53.200;6.080;2023-04-24T20:22:32;100804.03;;;7.52;100.00
76434;BME280;65265;53.200;6.080;2023-04-24T20:27:27;100818.19;;;7.47;99.35
76434;BME280;65265;53.200;6.080;2023-04-24T20:32:19;100820.56;;;7.44;98.64
76434;BME280;65265;53.200;6.080;2023-04-24T20:37:12;100818.69;;;7.40;98.42
76434;BME280;65265;53.200;6.080;2023-04-24T20:42:04;100825.19;;;7.35;98.63
76434;BME280;65265;53.200;6.080;2023-04-24T20:46:56;100828.53;;;7.34;97.73
76434;BME280;65265;53.200;6.080;2023-04-24T20:51:48;100832.41;;;7.27;97.35
76434;BME280;65265;53.200;6.080;2023-04-24T20:56:41;100834.06;;;7.27;96.54
76434;BME280;65265;53.200;6.080;2023-04-24T21:01:32;100845.59;;;7.20;96.10
76434;BME280;65265;53.200;6.080;2023-04-24T21:06:23;100853.97;;;7.18;96.36
76434;BME280;65265;53.200;6.080;2023-04-24T21:11:15;100858.06;;;7.16;96.51
76434;BME280;65265;53.200;6.080;2023-04-24T21:16:08;100855.63;;;7.17;96.73
76434;BME280;65265;53.200;6.080;2023-04-24T21:20:59;100860.47;;;7.13;96.75
76434;BME280;65265;53.200;6.080;2023-04-24T21:25:50;100868.03;;;7.11;95.74
76434;BME280;65265;53.200;6.080;2023-04-24T21:30:42;100866.03;;;7.06;95.52
76434;BME280;65265;53.200;6.080;2023-04-24T21:35:35;100876.09;;;7.04;95.08
76434;BME280;65265;53.200;6.080;2023-04-24T21:40:26;100874.97;;;6.99;93.11
76434;BME280;65265;53.200;6.080;2023-04-24T21:45:18;100885.53;;;6.91;92.64
76434;BME280;65265;53.200;6.080;2023-04-24T21:50:10;100882.66;;;6.85;91.62
76434;BME280;65265;53.200;6.080;2023-04-24T21:55:04;100889.25;;;6.82;92.33
76434;BME280;65265;53.200;6.080;2023-04-24T21:59:55;100895.97;;;6.81;92.04
76434;BME280;65265;53.200;6.080;2023-04-24T22:04:47;100901.84;;;6.80;91.02
76434;BME280;65265;53.200;6.080;2023-04-24T22:09:39;100904.66;;;6.70;91.50
76434;BME280;65265;53.200;6.080;2023-04-24T22:14:32;100915.88;;;6.74;91.67
76434;BME280;65265;53.200;6.080;2023-04-24T22:19:24;100917.47;;;6.72;91.38
76434;BME280;65265;53.200;6.080;2023-04-24T22:24:17;100923.09;;;6.66;90.62
76434;BME280;65265;53.200;6.080;2023-04-24T22:29:09;100930.72;;;6.66;91.40
76434;BME280;65265;53.200;6.080;2023-04-24T22:34:01;100926.44;;;6.65;91.77
76434;BME280;65265;53.200;6.080;2023-04-24T22:38:53;100927.22;;;6.64;91.66
76434;BME280;65265;53.200;6.080;2023-04-24T22:43:45;100930.56;;;6.63;91.80
76434;BME280;65265;53.200;6.080;2023-04-24T22:48:36;100922.72;;;6.60;91.70
76434;BME280;65265;53.200;6.080;2023-04-24T22:53:29;100931.25;;;6.61;90.83
76434;BME280;65265;53.200;6.080;2023-04-24T22:58:20;100929.25;;;6.55;88.77
76434;BME280;65265;53.200;6.080;2023-04-24T23:03:12;100932.47;;;6.53;88.29
76434;BME280;65265;53.200;6.080;2023-04-24T23:08:04;100935.63;;;6.49;88.13
76434;BME280;65265;53.200;6.080;2023-04-24T23:12:57;100937.03;;;6.44;87.69
76434;BME280;65265;53.200;6.080;2023-04-24T23:17:48;100931.72;;;6.39;87.44
76434;BME280;65265;53.200;6.080;2023-04-24T23:22:40;100935.00;;;6.38;87.95
76434;BME280;65265;53.200;6.080;2023-04-24T23:27:31;100940.09;;;6.38;87.68
76434;BME280;65265;53.200;6.080;2023-04-24T23:32:25;100951.81;;;6.36;88.22
76434;BME280;65265;53.200;6.080;2023-04-24T23:37:16;100951.81;;;6.36;88.64
76434;BME280;65265;53.200;6.080;2023-04-24T23:42:08;100951.81;;;6.36;88.81
76434;BME280;65265;53.200;6.080;2023-04-24T23:46:59;100960.50;;;6.40;88.97
76434;BME280;65265;53.200;6.080;2023-04-24T23:51:53;100962.34;;;6.42;88.73
76434;BME280;65265;53.200;6.080;2023-04-24T23:56:45;100964.47;;;6.35;88.13
